createdAt,value
2023-02-24T00:00:47.236Z,75.20
2023-02-24T00:03:13.882Z,75.00
2023-02-24T00:05:40.399Z,74.60
2023-02-24T00:08:06.894Z,74.60
2023-02-24T00:10:33.351Z,74.30
2023-02-24T00:12:59.832Z,74.20
2023-02-24T00:15:26.303Z,73.80
2023-02-24T00:17:52.788Z,73.70
2023-02-24T00:20:19.280Z,73.60
2023-02-24T00:22:45.766Z,73.80
2023-02-24T00:25:12.233Z,73.60
2023-02-24T00:27:38.716Z,73.60
2023-02-24T00:30:05.208Z,73.70
2023-02-24T00:32:31.859Z,73.60
2023-02-24T00:34:58.402Z,73.90
2023-02-24T00:37:24.888Z,74.20
2023-02-24T00:39:51.357Z,74.10
2023-02-24T00:42:17.853Z,74.20
2023-02-24T00:44:44.310Z,74.00
2023-02-24T00:47:10.850Z,73.70
2023-02-24T00:49:37.334Z,74.10
2023-02-24T00:52:03.803Z,73.80
2023-02-24T00:54:30.276Z,73.80
2023-02-24T00:56:56.744Z,73.90
2023-02-24T00:59:23.218Z,73.90
2023-02-24T01:01:49.780Z,74.00
2023-02-24T01:04:16.320Z,73.90
2023-02-24T01:06:42.915Z,74.40
2023-02-24T01:09:09.404Z,74.80
2023-02-24T01:11:35.932Z,75.00
2023-02-24T01:14:05.907Z,74.50
2023-02-24T01:16:32.401Z,74.50
2023-02-24T01:18:58.883Z,74.70
2023-02-24T01:21:25.365Z,74.50
2023-02-24T01:23:51.846Z,74.60
2023-02-24T01:26:18.318Z,74.40
2023-02-24T01:28:44.792Z,74.30
2023-02-24T01:31:11.358Z,74.00
2023-02-24T01:33:37.870Z,74.20
2023-02-24T01:36:04.341Z,74.10
2023-02-24T01:38:30.824Z,74.30
2023-02-24T01:40:57.303Z,74.40
2023-02-24T01:43:23.790Z,74.50
2023-02-24T01:45:50.272Z,74.70
2023-02-24T01:48:16.749Z,74.50
2023-02-24T01:50:43.224Z,74.10
2023-02-24T01:53:09.722Z,74.30
2023-02-24T01:55:36.198Z,74.20
2023-02-24T01:58:02.684Z,73.90
2023-02-24T02:00:29.178Z,74.20
2023-02-24T02:02:55.699Z,74.10
2023-02-24T02:05:22.182Z,74.00
2023-02-24T02:07:48.659Z,74.00
2023-02-24T02:10:15.172Z,74.10
2023-02-24T02:12:41.646Z,74.00
2023-02-24T02:15:08.143Z,74.00
2023-02-24T02:17:34.635Z,73.90
2023-02-24T02:20:01.139Z,74.10
2023-02-24T02:22:27.673Z,74.10
2023-02-24T02:24:54.182Z,73.90
2023-02-24T02:27:20.671Z,73.80
2023-02-24T02:29:47.170Z,73.60
2023-02-24T02:32:13.712Z,73.40
2023-02-24T02:34:41.976Z,73.50
2023-02-24T02:37:08.459Z,73.10
2023-02-24T02:39:34.955Z,73.40
2023-02-24T02:42:01.454Z,73.30
2023-02-24T02:44:27.939Z,73.10
2023-02-24T02:46:54.398Z,72.70
2023-02-24T02:49:20.876Z,72.80
2023-02-24T02:51:47.353Z,72.80
2023-02-24T02:54:13.836Z,72.90
2023-02-24T02:56:40.302Z,73.10
2023-02-24T02:59:06.777Z,72.70
2023-02-24T03:01:34.023Z,72.60
2023-02-24T03:04:00.527Z,72.60
2023-02-24T03:06:27.010Z,72.60
2023-02-24T03:08:53.494Z,72.20
2023-02-24T03:11:20.202Z,72.30
2023-02-24T03:13:46.895Z,72.50
2023-02-24T03:19:03.832Z,72.40
2023-02-24T03:21:30.349Z,72.00
2023-02-24T03:23:56.832Z,72.50
2023-02-24T03:26:23.313Z,72.00
2023-02-24T03:28:49.799Z,72.00
2023-02-24T03:31:16.389Z,72.30
2023-02-24T03:33:42.894Z,72.30
2023-02-24T03:36:09.376Z,72.30
2023-02-24T03:38:35.891Z,72.40
2023-02-24T03:41:02.363Z,72.10
2023-02-24T03:43:28.838Z,72.20
2023-02-24T03:45:55.341Z,72.20
2023-02-24T03:48:21.841Z,71.90
2023-02-24T03:50:48.334Z,72.00
2023-02-24T03:53:14.826Z,72.10
2023-02-24T03:55:41.344Z,71.70
2023-02-24T03:58:07.829Z,72.00
2023-02-24T04:00:34.339Z,71.60
2023-02-24T04:03:00.807Z,71.80
2023-02-24T04:05:27.317Z,71.60
2023-02-24T04:07:53.810Z,71.60
2023-02-24T04:10:20.306Z,71.50
2023-02-24T04:12:46.912Z,71.30
2023-02-24T04:15:13.462Z,71.40
2023-02-24T04:17:39.946Z,71.60
2023-02-24T04:20:06.445Z,71.70
2023-02-24T04:22:32.931Z,71.60
2023-02-24T04:24:59.404Z,71.70
2023-02-24T04:27:25.892Z,71.50
2023-02-24T04:29:52.381Z,71.50
2023-02-24T04:32:19.008Z,71.60
2023-02-24T04:34:45.586Z,71.40
2023-02-24T04:37:12.086Z,71.30
2023-02-24T04:39:38.574Z,71.50
2023-02-24T04:42:05.058Z,71.40
2023-02-24T04:44:31.540Z,71.10
2023-02-24T04:46:58.029Z,71.20
2023-02-24T04:49:24.514Z,71.40
2023-02-24T04:51:50.987Z,71.20
2023-02-24T04:54:17.624Z,71.00
2023-02-24T04:56:44.164Z,71.40
2023-02-24T04:59:10.646Z,71.40
2023-02-24T05:01:37.116Z,71.90
2023-02-24T05:04:03.663Z,71.30
2023-02-24T05:06:36.113Z,71.50
2023-02-24T05:09:02.576Z,71.20
2023-02-24T05:11:29.087Z,71.10
2023-02-24T05:13:55.595Z,71.30
2023-02-24T05:16:22.116Z,71.20
2023-02-24T05:18:48.615Z,71.20
2023-02-24T05:21:15.099Z,71.10
2023-02-24T05:23:41.591Z,70.90
2023-02-24T05:26:08.100Z,71.00
2023-02-24T05:28:34.565Z,70.90
2023-02-24T05:31:01.205Z,70.90
2023-02-24T05:33:27.769Z,71.20
2023-02-24T05:35:54.254Z,71.00
2023-02-24T05:38:20.725Z,70.80
2023-02-24T05:40:47.237Z,71.00
2023-02-24T05:43:13.717Z,70.90
2023-02-24T05:45:40.215Z,70.90
2023-02-24T05:48:06.679Z,70.70
2023-02-24T05:50:33.191Z,70.50
2023-02-24T05:52:59.668Z,70.50
2023-02-24T05:55:26.144Z,71.00
2023-02-24T05:57:52.653Z,70.90
2023-02-24T06:00:19.094Z,70.40
2023-02-24T06:02:45.642Z,70.50
2023-02-24T06:05:12.196Z,70.50
2023-02-24T06:07:38.674Z,70.50
2023-02-24T06:10:05.179Z,70.40
2023-02-24T06:12:31.686Z,71.00
2023-02-24T06:14:58.180Z,70.80
2023-02-24T06:17:24.688Z,70.60
2023-02-24T06:19:51.182Z,70.80
2023-02-24T06:22:17.679Z,70.60
2023-02-24T06:24:44.159Z,70.70
2023-02-24T06:27:10.631Z,70.70
2023-02-24T06:29:37.102Z,70.50
2023-02-24T06:32:03.649Z,70.80
2023-02-24T06:34:30.169Z,70.90
2023-02-24T06:36:56.642Z,70.60
2023-02-24T06:39:23.122Z,70.50
2023-02-24T06:41:49.624Z,70.40
2023-02-24T06:44:16.090Z,70.60
2023-02-24T06:46:48.182Z,70.60
2023-02-24T06:49:14.671Z,70.70
2023-02-24T06:51:41.189Z,70.70
2023-02-24T06:54:07.723Z,70.60
2023-02-24T06:56:34.216Z,70.50
2023-02-24T06:59:00.684Z,70.20
2023-02-24T07:01:27.252Z,70.10
2023-02-24T07:03:53.776Z,70.00
2023-02-24T07:06:20.352Z,70.30
2023-02-24T07:08:46.936Z,70.30
2023-02-24T07:11:13.423Z,70.60
2023-02-24T07:13:39.918Z,70.20
2023-02-24T07:16:06.420Z,69.90
2023-02-24T07:18:32.913Z,69.90
2023-02-24T07:20:59.374Z,69.60
2023-02-24T07:23:25.843Z,69.40
2023-02-24T07:25:52.320Z,69.80
2023-02-24T07:28:18.822Z,69.70
2023-02-24T07:30:45.369Z,69.90
2023-02-24T07:33:11.886Z,69.50
2023-02-24T07:35:39.358Z,69.50
2023-02-24T07:38:06.751Z,69.50
2023-02-24T07:40:33.233Z,69.20
2023-02-24T07:42:59.704Z,69.30
2023-02-24T07:45:26.198Z,69.20
2023-02-24T07:47:52.682Z,69.20
2023-02-24T07:50:19.177Z,68.90
2023-02-24T07:52:45.676Z,69.00
2023-02-24T07:55:12.142Z,68.30
2023-02-24T07:57:38.623Z,68.80
2023-02-24T08:00:05.139Z,68.80
2023-02-24T08:02:36.288Z,68.70
2023-02-24T08:05:02.818Z,68.20
2023-02-24T08:07:29.333Z,69.00
2023-02-24T08:09:55.807Z,68.50
2023-02-24T08:12:22.605Z,68.30
2023-02-24T08:14:49.181Z,68.50
2023-02-24T08:17:15.701Z,68.20
2023-02-24T08:19:42.192Z,67.50
2023-02-24T08:22:08.713Z,68.00
2023-02-24T08:24:35.195Z,68.20
2023-02-24T08:27:01.672Z,68.00
2023-02-24T08:29:28.141Z,67.50
2023-02-24T08:31:54.727Z,67.40
2023-02-24T08:34:21.274Z,67.50
2023-02-24T08:36:47.745Z,67.10
2023-02-24T08:39:14.237Z,67.40
2023-02-24T08:41:40.717Z,67.40
2023-02-24T08:44:07.196Z,67.00
2023-02-24T08:46:33.755Z,67.10
2023-02-24T08:49:00.320Z,66.90
2023-02-24T08:51:26.814Z,66.70
2023-02-24T08:53:53.302Z,66.40
2023-02-24T08:56:20.100Z,66.40
2023-02-24T08:58:46.838Z,65.80
2023-02-24T09:01:13.534Z,66.30
2023-02-24T09:03:40.073Z,66.40
2023-02-24T09:06:06.585Z,65.90
2023-02-24T09:08:33.095Z,66.20
2023-02-24T09:10:59.575Z,65.80
2023-02-24T09:13:26.054Z,65.90
2023-02-24T09:15:54.344Z,65.20
2023-02-24T09:18:20.849Z,66.00
2023-02-24T09:20:48.336Z,65.40
2023-02-24T09:23:14.963Z,65.30
2023-02-24T09:25:41.456Z,65.50
2023-02-24T09:28:08.189Z,65.00
2023-02-24T09:30:34.887Z,65.00
2023-02-24T09:33:01.620Z,65.00
2023-02-24T09:35:28.215Z,64.40
2023-02-24T09:37:54.706Z,64.70
2023-02-24T09:40:21.207Z,65.10
2023-02-24T09:42:47.684Z,64.50
2023-02-24T09:45:14.173Z,64.40
2023-02-24T09:47:40.805Z,64.50
2023-02-24T09:50:07.364Z,64.70
2023-02-24T09:52:33.860Z,64.10
2023-02-24T09:55:00.343Z,64.50
2023-02-24T09:57:26.892Z,64.00
2023-02-24T09:59:53.403Z,64.50
2023-02-24T10:02:19.913Z,64.20
2023-02-24T10:04:46.454Z,64.20
2023-02-24T10:07:12.914Z,64.80
2023-02-24T10:09:39.406Z,64.50
2023-02-24T10:12:05.898Z,64.40
2023-02-24T10:14:42.934Z,64.30
2023-02-24T10:17:10.103Z,64.40
2023-02-24T10:19:36.607Z,63.80
2023-02-24T10:22:03.324Z,64.50
2023-02-24T10:24:29.990Z,64.40
2023-02-24T10:27:07.191Z,64.00
2023-02-24T10:29:33.969Z,64.30
2023-02-24T10:32:00.628Z,63.60
2023-02-24T10:34:27.278Z,64.00
2023-02-24T10:36:53.767Z,63.90
2023-02-24T10:39:20.278Z,64.00
2023-02-24T10:41:46.837Z,63.90
2023-02-24T10:44:13.374Z,64.20
2023-02-24T10:46:42.038Z,63.90
2023-02-24T10:49:09.209Z,63.80
2023-02-24T10:51:35.696Z,63.70
2023-02-24T10:54:02.171Z,63.90
2023-02-24T10:56:28.666Z,64.00
2023-02-24T10:58:55.139Z,63.90
2023-02-24T11:01:21.977Z,64.10
2023-02-24T11:03:48.665Z,64.30
2023-02-24T11:06:15.152Z,64.30
2023-02-24T11:08:41.630Z,64.10
2023-02-24T11:11:08.121Z,64.90
2023-02-24T11:13:34.600Z,64.00
2023-02-24T11:16:06.531Z,64.10
2023-02-24T11:18:33.025Z,63.80
2023-02-24T11:20:59.526Z,63.90
2023-02-24T11:23:26.018Z,64.60
2023-02-24T11:25:52.507Z,64.30
2023-02-24T11:28:18.985Z,64.30
2023-02-24T11:30:45.570Z,64.30
2023-02-24T11:33:12.146Z,64.20
2023-02-24T11:35:38.706Z,64.30
2023-02-24T11:38:05.182Z,64.30
2023-02-24T11:40:31.675Z,64.50
2023-02-24T11:42:58.163Z,64.50
2023-02-24T11:45:24.659Z,65.00
2023-02-24T11:47:51.159Z,64.50
2023-02-24T11:50:17.622Z,65.00
2023-02-24T11:52:44.198Z,64.70
2023-02-24T11:55:10.665Z,64.50
2023-02-24T11:57:37.163Z,64.70
2023-02-24T12:00:03.626Z,64.70
2023-02-24T12:02:30.163Z,64.80
2023-02-24T12:04:56.678Z,65.00
2023-02-24T12:07:23.159Z,64.70
2023-02-24T12:09:49.644Z,64.90
2023-02-24T12:12:16.118Z,64.70
2023-02-24T12:14:42.600Z,64.50
2023-02-24T12:17:09.085Z,64.60
2023-02-24T12:19:35.558Z,64.60
2023-02-24T12:22:02.005Z,64.60
2023-02-24T12:24:28.489Z,64.70
2023-02-24T12:26:54.978Z,64.90
2023-02-24T12:29:21.454Z,65.00
2023-02-24T12:31:48.040Z,65.00
2023-02-24T12:34:14.597Z,65.00
2023-02-24T12:36:41.075Z,65.00
2023-02-24T12:39:07.568Z,65.20
2023-02-24T12:41:36.318Z,65.20
2023-02-24T12:44:03.702Z,65.30
2023-02-24T12:46:30.186Z,65.10
2023-02-24T12:48:56.665Z,65.00
2023-02-24T12:51:23.581Z,65.30
2023-02-24T12:53:50.288Z,65.40
2023-02-24T12:56:16.804Z,65.30
2023-02-24T12:58:43.330Z,65.30
2023-02-24T13:01:09.906Z,65.30
2023-02-24T13:03:36.422Z,65.20
2023-02-24T13:06:02.902Z,66.50
2023-02-24T13:08:30.498Z,65.90
2023-02-24T13:10:59.094Z,65.80
2023-02-24T13:13:30.493Z,65.70
2023-02-24T13:15:56.986Z,65.70
2023-02-24T13:18:23.493Z,65.70
2023-02-24T13:20:49.984Z,65.70
2023-02-24T13:23:16.490Z,65.80
2023-02-24T13:25:42.967Z,65.80
2023-02-24T13:28:09.456Z,65.80
2023-02-24T13:30:35.954Z,65.50
2023-02-24T13:33:02.437Z,65.60
2023-02-24T13:35:28.912Z,65.80
2023-02-24T13:37:55.419Z,65.80
2023-02-24T13:40:21.906Z,65.80
2023-02-24T13:42:48.381Z,65.80
2023-02-24T13:45:14.862Z,65.60
2023-02-24T13:47:41.348Z,65.10
2023-02-24T13:50:08.084Z,65.10
2023-02-24T13:52:34.581Z,65.40
2023-02-24T13:55:01.068Z,65.30
2023-02-24T13:57:27.586Z,65.50
2023-02-24T13:59:54.863Z,65.70
2023-02-24T14:02:22.661Z,65.80
2023-02-24T14:04:49.211Z,65.70
2023-02-24T14:07:15.721Z,65.80
2023-02-24T14:09:42.208Z,66.00
2023-02-24T14:12:08.723Z,66.00
2023-02-24T14:14:35.206Z,66.10
2023-02-24T14:17:01.668Z,66.30
2023-02-24T14:19:28.151Z,66.00
2023-02-24T14:21:54.633Z,65.80
2023-02-24T14:24:24.565Z,65.80
2023-02-24T14:26:51.047Z,65.90
2023-02-24T14:29:17.519Z,66.20
2023-02-24T14:31:44.148Z,66.50
2023-02-24T14:34:10.752Z,66.50
2023-02-24T14:36:37.228Z,66.40
2023-02-24T14:39:03.725Z,66.20
2023-02-24T14:41:30.209Z,66.10
2023-02-24T14:44:00.583Z,66.40
2023-02-24T14:46:27.287Z,66.50
2023-02-24T14:48:53.859Z,66.40
2023-02-24T14:51:20.356Z,66.60
2023-02-24T14:53:46.858Z,66.80
2023-02-24T14:56:13.445Z,67.00
2023-02-24T14:58:42.605Z,66.60
2023-02-24T15:01:09.087Z,66.90
2023-02-24T15:03:35.677Z,66.90
2023-02-24T15:06:02.207Z,67.00
2023-02-24T15:08:28.734Z,67.00
2023-02-24T15:10:55.224Z,67.00
2023-02-24T15:13:21.728Z,67.00
2023-02-24T15:15:48.224Z,67.00
2023-02-24T15:18:14.752Z,67.10
2023-02-24T15:20:41.213Z,67.00
2023-02-24T15:23:07.674Z,67.10
2023-02-24T15:25:42.774Z,67.20
2023-02-24T15:28:09.536Z,67.00
2023-02-24T15:30:36.062Z,67.20
2023-02-24T15:33:02.719Z,67.10
2023-02-24T15:35:29.211Z,67.00
2023-02-24T15:37:55.686Z,66.90
2023-02-24T15:40:22.176Z,66.90
2023-02-24T15:42:48.639Z,67.00
2023-02-24T15:45:15.104Z,67.50
2023-02-24T15:47:41.583Z,67.70
2023-02-24T15:50:08.056Z,67.60
2023-02-24T15:52:34.551Z,67.70
2023-02-24T15:55:01.036Z,68.00
2023-02-24T15:57:27.525Z,68.00
2023-02-24T15:59:54.023Z,68.50
2023-02-24T16:02:20.500Z,68.40
2023-02-24T16:04:46.999Z,68.40
2023-02-24T16:07:13.470Z,68.60
2023-02-24T16:09:39.980Z,68.40
2023-02-24T16:12:06.442Z,68.30
2023-02-24T16:14:32.933Z,68.20
2023-02-24T16:16:59.408Z,68.40
2023-02-24T16:19:25.906Z,68.30
2023-02-24T16:21:52.388Z,68.60
2023-02-24T16:24:21.394Z,68.80
2023-02-24T16:26:48.115Z,68.70
2023-02-24T16:29:14.640Z,68.70
2023-02-24T16:31:41.434Z,69.10
2023-02-24T16:34:08.045Z,69.30
2023-02-24T16:36:34.556Z,69.40
2023-02-24T16:39:01.055Z,69.50
2023-02-24T16:41:27.542Z,69.40
2023-02-24T16:43:54.045Z,69.30
2023-02-24T16:46:25.091Z,69.20
2023-02-24T16:48:51.770Z,69.30
2023-02-24T16:51:18.663Z,69.50
2023-02-24T16:53:45.136Z,69.00
2023-02-24T16:56:11.627Z,69.30
2023-02-24T16:58:38.122Z,69.50
2023-02-24T17:01:04.668Z,69.70
2023-02-24T17:03:31.197Z,69.70
2023-02-24T17:05:57.718Z,69.70
2023-02-24T17:08:24.452Z,69.80
2023-02-24T17:10:50.941Z,69.60
2023-02-24T17:13:17.430Z,69.60
2023-02-24T17:15:43.924Z,69.50
2023-02-24T17:18:10.425Z,69.50
2023-02-24T17:20:36.917Z,69.50
2023-02-24T17:23:03.390Z,69.80
2023-02-24T17:25:29.850Z,69.50
2023-02-24T17:27:56.325Z,70.00
2023-02-24T17:30:22.801Z,69.80
2023-02-24T17:32:49.327Z,69.70
2023-02-24T17:35:15.829Z,69.90
2023-02-24T17:37:42.298Z,70.10
2023-02-24T17:40:08.832Z,70.20
2023-02-24T17:42:35.298Z,70.10
2023-02-24T17:45:01.786Z,70.40
2023-02-24T17:47:28.257Z,70.80
2023-02-24T17:49:54.723Z,70.50
2023-02-24T17:52:21.352Z,70.50
2023-02-24T17:54:47.814Z,70.60
2023-02-24T17:57:14.308Z,70.80
2023-02-24T17:59:40.785Z,70.70
2023-02-24T18:02:07.320Z,70.80
2023-02-24T18:04:33.846Z,71.00
2023-02-24T18:07:00.316Z,71.10
2023-02-24T18:09:26.793Z,70.80
2023-02-24T18:11:53.274Z,70.80
2023-02-24T18:14:19.751Z,70.80
2023-02-24T18:16:46.239Z,70.50
2023-02-24T18:19:12.728Z,70.60
2023-02-24T18:21:39.262Z,70.30
2023-02-24T18:24:05.746Z,70.30
2023-02-24T18:26:32.254Z,70.60
2023-02-24T18:28:58.729Z,70.40
2023-02-24T18:31:25.398Z,70.50
2023-02-24T18:33:51.944Z,70.40
2023-02-24T18:36:18.486Z,70.00
2023-02-24T18:38:45.021Z,69.90
2023-02-24T18:41:11.535Z,70.00
2023-02-24T18:43:38.004Z,70.00
2023-02-24T18:46:04.535Z,70.00
2023-02-24T18:48:31.056Z,70.00
2023-02-24T18:50:57.573Z,70.00
2023-02-24T18:53:25.169Z,70.00
2023-02-24T18:55:54.834Z,70.00
2023-02-24T18:58:21.347Z,70.00
2023-02-24T19:00:47.805Z,69.80
2023-02-24T19:03:14.300Z,70.00
2023-02-24T19:05:40.798Z,70.20
2023-02-24T19:08:07.257Z,70.10
2023-02-24T19:10:33.725Z,69.90
2023-02-24T19:13:00.202Z,70.30
2023-02-24T19:15:26.667Z,70.20
2023-02-24T19:17:53.135Z,70.00
2023-02-24T19:20:19.624Z,69.90
2023-02-24T19:22:46.147Z,69.80
2023-02-24T19:25:12.645Z,69.80
2023-02-24T19:27:39.125Z,69.80
2023-02-24T19:30:05.601Z,69.70
2023-02-24T19:32:32.227Z,69.60
2023-02-24T19:34:58.816Z,69.50
2023-02-24T19:37:25.307Z,69.40
2023-02-24T19:39:51.796Z,69.70
2023-02-24T19:42:18.277Z,69.30
2023-02-24T19:44:44.767Z,69.20
2023-02-24T19:47:11.265Z,69.60
2023-02-24T19:49:37.753Z,70.00
2023-02-24T19:52:04.261Z,69.90
2023-02-24T19:54:30.744Z,69.90
2023-02-24T19:56:57.276Z,69.70
2023-02-24T19:59:23.738Z,69.60
2023-02-24T20:01:50.209Z,69.40
2023-02-24T20:04:16.681Z,69.60
2023-02-24T20:06:43.146Z,69.30
2023-02-24T20:09:09.614Z,69.40
2023-02-24T20:11:36.092Z,69.40
2023-02-24T20:14:02.587Z,69.20
2023-02-24T20:16:29.087Z,69.30
2023-02-24T20:18:55.631Z,69.70
2023-02-24T20:21:22.145Z,69.70
2023-02-24T20:23:48.632Z,69.80
2023-02-24T20:26:15.101Z,69.80
2023-02-24T20:28:41.591Z,69.60
2023-02-24T20:31:08.142Z,69.40
2023-02-24T20:33:34.668Z,69.60
2023-02-24T20:36:01.148Z,69.50
2023-02-24T20:38:27.655Z,69.50
2023-02-24T20:40:54.132Z,69.40
2023-02-24T20:43:20.613Z,69.50
2023-02-24T20:45:47.118Z,69.60
2023-02-24T20:48:13.627Z,69.50
2023-02-24T20:50:40.091Z,69.10
2023-02-24T20:53:06.599Z,69.20
2023-02-24T20:55:33.092Z,69.20
2023-02-24T20:57:59.610Z,69.30
2023-02-24T21:00:26.079Z,69.40
2023-02-24T21:02:52.598Z,69.50
2023-02-24T21:05:19.085Z,69.50
2023-02-24T21:07:45.563Z,69.60
2023-02-24T21:10:12.053Z,69.20
2023-02-24T21:12:38.519Z,69.50
2023-02-24T21:15:05.012Z,69.20
2023-02-24T21:17:31.487Z,69.10
2023-02-24T21:19:57.949Z,69.10
2023-02-24T21:22:24.418Z,69.10
2023-02-24T21:24:50.906Z,69.20
2023-02-24T21:27:17.380Z,69.10
2023-02-24T21:29:43.871Z,68.80
2023-02-24T21:32:10.530Z,68.80
2023-02-24T21:34:37.081Z,69.00
2023-02-24T21:37:03.566Z,68.70
2023-02-24T21:39:30.051Z,69.00
2023-02-24T21:41:56.526Z,69.00
2023-02-24T21:44:22.989Z,69.10
2023-02-24T21:46:49.510Z,68.90
2023-02-24T21:49:16.020Z,68.90
2023-02-24T21:51:42.501Z,68.90
2023-02-24T21:54:08.982Z,69.00
2023-02-24T21:56:35.463Z,68.90
2023-02-24T21:59:01.931Z,69.00
2023-02-24T22:01:28.457Z,68.60
2023-02-24T22:03:54.996Z,68.40
2023-02-24T22:06:21.747Z,68.80
2023-02-24T22:08:48.380Z,68.80
2023-02-24T22:11:14.863Z,69.10
2023-02-24T22:13:41.326Z,68.40
2023-02-24T22:16:07.870Z,68.50
2023-02-24T22:18:34.369Z,68.20
2023-02-24T22:21:00.855Z,68.60
2023-02-24T22:23:27.342Z,69.70
2023-02-24T22:25:53.814Z,69.90
2023-02-24T22:28:20.327Z,68.70
2023-02-24T22:30:46.843Z,68.50
2023-02-24T22:33:13.344Z,68.50
2023-02-24T22:35:39.837Z,68.40
2023-02-24T22:38:06.342Z,68.10
2023-02-24T22:40:32.817Z,68.20
2023-02-24T22:42:59.279Z,68.10
2023-02-24T22:45:25.763Z,68.40
2023-02-24T22:47:52.304Z,69.20
2023-02-24T22:50:18.816Z,68.10
2023-02-24T22:52:45.299Z,68.10
2023-02-24T22:55:11.811Z,68.10
2023-02-24T22:57:38.270Z,68.40
2023-02-24T23:00:04.752Z,69.60
2023-02-24T23:02:31.237Z,68.50
2023-02-24T23:04:57.736Z,68.40
2023-02-24T23:07:24.256Z,69.00
2023-02-24T23:09:50.756Z,69.30
2023-02-24T23:12:17.260Z,69.50
2023-02-24T23:14:43.767Z,69.50
2023-02-24T23:17:10.223Z,69.40
2023-02-24T23:19:36.742Z,69.50
2023-02-24T23:22:03.235Z,69.50
2023-02-24T23:24:29.749Z,69.70
2023-02-24T23:26:56.218Z,69.20
2023-02-24T23:29:22.721Z,69.40
2023-02-24T23:31:49.281Z,69.30
2023-02-24T23:34:15.810Z,69.00
2023-02-24T23:36:42.289Z,69.20
2023-02-24T23:39:08.757Z,68.90
2023-02-24T23:41:35.256Z,69.00
2023-02-24T23:44:01.753Z,69.10
2023-02-24T23:46:28.242Z,69.10
2023-02-24T23:48:54.701Z,69.00
2023-02-24T23:51:21.194Z,68.80
2023-02-24T23:53:47.674Z,68.50
2023-02-24T23:56:14.158Z,68.60
2023-02-24T23:58:40.630Z,68.60
